Elim Airport

About
Name: Elim Airport
Identifier:  ELI/PFEL
Serves:  Elim, Alaska
Owner:  State of Alaska DOT&PF - Northern Region
Public/Private:  Public
Local Time:  22. Aug 20:21 AKDT
Description: Elim Airport is a state-owned, public-use airport located three nautical miles southwest of the central business district of Elim,[1] a city in the Nome Census Area of the U.S. state of Alaska.
Source: Wikipedia
Location
Runways
Identifier Length (m/ft) Surface
1/19 3,401/3,401 Gravel
Flights per Day
1 flights
Distance: 131km (81mi)
Punctuality
45% (0 flights per day delayed)
Delay Average: 113 minutes
Current Weather
 16 C (Humidity: 48%)
  10kt (18km/h / 11mph) from 10°
  Broken clouds at 6,000 feet (1,828 meter)
  16km (10 mi.)
 METAR PFEL 230356Z AUTO 01010KT 10SM BKN060 16/05 A2972 RMK AO2 SLP064 T01560050

Current Flights

Departures
Number Departure To Airline
Arrivals
Number Arrival From Airline
 8E812 10:30 +526  Nome Bering Air

Current Delays

Departures
N/A
Arrivals
N/A

Destinations

Top Destinations
Airport Flights
per week
Seats
per week
  Nome (OME) 4 - 0 0
  Golovin (GLV) 0 - 0 0
  Shaktoolik (SKK) 0 - 0 0

Airlines & Planes

Top Airlines
Airline Flights
per Day
Seats
per Day
Bering Air 0 -
Top Plane Types
Model Flights Seats
Cessna C208 0.3/day - 0
Beech B200 Super King Air 0.2/day - 0
Piper PA-31-350 0.2/day - 0